Time;durP1;ratioP1;P1;durP2;ratioP2;P2;SDS_P1;SDS_P2;PMS_P1;PMS_P2;Temp;Humidity;BMP_temperature;BMP_pressure;BME280_temperature;BME280_humidity;BME280_pressure;Samples;Min_cycle;Max_cycle;Signal;HPM_P1;HPM_P2
2021/12/29 00:01:24;;;;;;;8.20;2.03;;;7.00;99.90;;;;;;4973203;28;20167;-67
2021/12/29 00:03:49;;;;;;;1.70;1.23;;;7.00;99.90;;;;;;4969970;28;20142;-67
2021/12/29 00:06:16;;;;;;;9.07;1.42;;;7.00;99.90;;;;;;4970989;28;21408;-68
2021/12/29 00:08:41;;;;;;;5.13;1.60;;;7.00;99.90;;;;;;4973865;28;20050;-68
2021/12/29 00:11:07;;;;;;;7.68;1.23;;;7.00;99.90;;;;;;4976984;28;20120;-68
2021/12/29 00:13:36;;;;;;;12.45;1.58;;;7.00;99.90;;;;;;4975782;28;20034;-68
2021/12/29 00:16:03;;;;;;;5.82;1.92;;;7.00;99.90;;;;;;4971075;28;20048;-68
2021/12/29 00:18:32;;;;;;;3.38;1.25;;;7.00;99.90;;;;;;4994052;28;20145;-67
2021/12/29 00:21:00;;;;;;;4.75;1.20;;;7.00;99.90;;;;;;4977715;28;20034;-67
2021/12/29 00:23:27;;;;;;;7.15;1.70;;;7.00;99.90;;;;;;4973935;28;20045;-68
2021/12/29 00:25:53;;;;;;;2.92;1.20;;;7.00;99.90;;;;;;4974480;28;21628;-67
2021/12/29 00:28:19;;;;;;;5.72;1.95;;;7.00;99.90;;;;;;4973366;28;21702;-68
2021/12/29 00:30:45;;;;;;;5.93;1.45;;;7.00;99.90;;;;;;4973696;28;20117;-68
2021/12/29 00:33:11;;;;;;;10.15;1.45;;;7.00;99.90;;;;;;4976569;28;20116;-68
2021/12/29 00:35:38;;;;;;;4.90;1.65;;;7.00;99.90;;;;;;4971948;28;20058;-68
2021/12/29 00:38:06;;;;;;;3.08;1.38;;;7.00;99.90;;;;;;4975113;28;20038;-68
2021/12/29 00:40:34;;;;;;;7.93;1.52;;;7.00;99.90;;;;;;4973324;28;20129;-68
2021/12/29 00:43:00;;;;;;;5.18;1.88;;;7.00;99.90;;;;;;4973820;28;20141;-68
2021/12/29 00:45:26;;;;;;;4.88;1.40;;;7.00;99.90;;;;;;4977065;28;20034;-68
2021/12/29 00:47:54;;;;;;;7.07;1.58;;;7.00;99.90;;;;;;4976414;28;21011;-68
2021/12/29 00:50:19;;;;;;;6.53;1.90;;;7.00;99.90;;;;;;4973291;28;20404;-68
2021/12/29 00:52:46;;;;;;;9.15;1.65;;;6.90;99.90;;;;;;4973828;28;20037;-68
2021/12/29 00:55:13;;;;;;;1.33;0.98;;;7.00;99.90;;;;;;4974152;28;20129;-68
2021/12/29 00:57:39;;;;;;;4.60;1.40;;;7.00;99.90;;;;;;4973492;28;20026;-68
2021/12/29 01:00:14;;;;;;;6.03;1.55;;;7.00;99.90;;;;;;4974161;28;20042;-68
2021/12/29 01:02:40;;;;;;;3.03;1.38;;;7.00;99.90;;;;;;4974776;28;20182;-68
2021/12/29 01:05:08;;;;;;;5.07;1.70;;;7.00;99.90;;;;;;4974659;28;20034;-68
2021/12/29 01:07:34;;;;;;;3.22;1.30;;;7.00;99.90;;;;;;4971938;28;20030;-69
2021/12/29 01:10:00;;;;;;;2.13;0.85;;;7.00;99.90;;;;;;4972733;28;20108;-68
2021/12/29 01:12:27;;;;;;;4.85;1.05;;;7.00;99.90;;;;;;4974622;28;20077;-68
2021/12/29 01:14:55;;;;;;;4.97;1.33;;;7.10;99.90;;;;;;4972362;28;20030;-68
2021/12/29 01:17:23;;;;;;;2.90;1.30;;;7.10;99.90;;;;;;4973783;28;20137;-68
2021/12/29 01:19:50;;;;;;;3.70;1.23;;;7.10;99.90;;;;;;4973719;28;20105;-68
2021/12/29 01:22:16;;;;;;;4.97;1.30;;;7.10;99.90;;;;;;4973441;28;20045;-68
2021/12/29 01:24:46;;;;;;;4.07;1.30;;;7.10;99.90;;;;;;4971487;28;20038;-68
2021/12/29 01:27:13;;;;;;;4.82;1.27;;;7.10;99.90;;;;;;4970286;28;20748;-68
2021/12/29 01:29:39;;;;;;;4.80;1.40;;;7.10;99.90;;;;;;4973465;28;20329;-68
2021/12/29 01:32:06;;;;;;;3.38;1.35;;;7.10;99.90;;;;;;4975687;28;20046;-68
2021/12/29 01:34:32;;;;;;;6.55;1.30;;;7.10;99.90;;;;;;5005551;28;20042;-69
2021/12/29 01:36:59;;;;;;;5.40;1.70;;;7.10;99.90;;;;;;4973731;28;20532;-68
2021/12/29 01:39:26;;;;;;;4.45;1.45;;;7.10;99.90;;;;;;4973698;28;20038;-68
2021/12/29 01:41:56;;;;;;;8.57;1.35;;;7.20;99.90;;;;;;4972126;28;20053;-68
2021/12/29 01:44:24;;;;;;;5.55;1.52;;;7.20;99.90;;;;;;4975632;28;20026;-68
2021/12/29 01:46:50;;;;;;;3.53;1.07;;;7.20;99.90;;;;;;4973144;28;20034;-67
2021/12/29 01:49:16;;;;;;;6.90;1.10;;;7.20;99.90;;;;;;4974236;28;20750;-68
2021/12/29 01:51:49;;;;;;;6.40;1.48;;;7.20;99.90;;;;;;4971697;28;20034;-68
2021/12/29 01:54:23;;;;;;;7.43;1.40;;;7.20;99.90;;;;;;4974024;28;20045;-68
2021/12/29 01:56:52;;;;;;;5.07;1.30;;;7.20;99.90;;;;;;4973790;28;20672;-68
2021/12/29 01:59:18;;;;;;;;;;;7.20;99.90;;;;;;4970579;28;20034;-68
2021/12/29 02:01:44;;;;;;;2.20;1.00;;;7.20;99.90;;;;;;4977161;28;20285;-68
2021/12/29 02:04:10;;;;;;;3.90;1.42;;;7.20;99.90;;;;;;4976139;28;20074;-68
2021/12/29 02:06:36;;;;;;;5.03;1.05;;;7.20;99.90;;;;;;4971844;28;20858;-67
2021/12/29 02:09:04;;;;;;;7.85;2.20;;;7.20;99.90;;;;;;4972097;28;20046;-67
2021/12/29 02:11:30;;;;;;;3.65;1.05;;;7.20;99.90;;;;;;4971994;28;20034;-68
2021/12/29 02:14:02;;;;;;;2.65;1.13;;;7.20;99.90;;;;;;4972808;28;20043;-67
2021/12/29 02:16:28;;;;;;;4.43;1.38;;;7.30;99.90;;;;;;4971207;28;20038;-67
2021/12/29 02:18:57;;;;;;;2.58;1.20;;;7.20;99.90;;;;;;4970932;28;20682;-68
2021/12/29 02:21:24;;;;;;;2.55;1.50;;;7.20;99.90;;;;;;4971564;28;20030;-68
2021/12/29 02:26:38;;;;;;;5.25;1.35;;;7.30;99.90;;;;;;4972650;28;20034;-69
2021/12/29 02:29:06;;;;;;;6.30;1.67;;;7.30;99.90;;;;;;4971262;28;20115;-68
2021/12/29 02:31:32;;;;;;;;;;;7.30;99.90;;;;;;4980141;28;20188;-69
2021/12/29 02:33:59;;;;;;;3.33;1.10;;;7.20;99.90;;;;;;4975459;28;19933;-67
2021/12/29 02:36:26;;;;;;;3.13;1.00;;;7.30;99.90;;;;;;4979697;28;20450;-68
2021/12/29 02:38:54;;;;;;;2.13;1.17;;;7.30;99.90;;;;;;4972671;28;20161;-68
2021/12/29 02:41:22;;;;;;;3.00;1.10;;;7.30;99.90;;;;;;4972661;28;20065;-68
2021/12/29 02:43:57;;;;;;;5.13;1.75;;;7.20;99.90;;;;;;4972723;28;20057;-68
2021/12/29 02:46:23;;;;;;;4.97;2.00;;;7.30;99.90;;;;;;4971223;28;20640;-68
2021/12/29 02:48:55;;;;;;;3.60;0.93;;;7.30;99.90;;;;;;5001710;28;20512;-67
2021/12/29 02:51:21;;;;;;;3.17;1.02;;;7.30;99.90;;;;;;4972273;28;20030;-67
2021/12/29 02:53:47;;;;;;;3.33;1.88;;;7.20;99.90;;;;;;4971806;28;20369;-67
2021/12/29 02:56:13;;;;;;;8.45;1.50;;;7.20;99.90;;;;;;4973453;28;20080;-68
2021/12/29 02:58:39;;;;;;;4.13;1.83;;;7.20;99.90;;;;;;4970591;28;20093;-68
2021/12/29 03:01:09;;;;;;;7.18;1.73;;;7.30;99.90;;;;;;4972104;28;20074;-68
2021/12/29 03:03:38;;;;;;;6.93;1.35;;;7.20;99.90;;;;;;4971660;28;20030;-68
2021/12/29 03:06:05;;;;;;;3.90;1.35;;;7.30;99.90;;;;;;4971069;28;20122;-67
2021/12/29 03:08:31;;;;;;;2.40;1.40;;;7.20;99.90;;;;;;4972467;28;20049;-67
2021/12/29 03:10:57;;;;;;;5.75;1.45;;;7.30;99.90;;;;;;4975010;28;20681;-67
2021/12/29 03:13:25;;;;;;;5.40;1.10;;;7.30;99.90;;;;;;4971595;28;20405;-68
2021/12/29 03:15:52;;;;;;;2.88;1.00;;;7.30;99.90;;;;;;4972617;28;20457;-68
2021/12/29 03:18:18;;;;;;;2.47;1.10;;;7.20;99.90;;;;;;4972055;28;20041;-68
2021/12/29 03:20:45;;;;;;;3.10;1.00;;;7.30;99.90;;;;;;4973113;28;20049;-68
2021/12/29 03:23:12;;;;;;;3.35;0.90;;;7.30;99.90;;;;;;4971933;28;20117;-68
2021/12/29 03:25:38;;;;;;;2.75;1.05;;;7.30;99.90;;;;;;4971567;28;20042;-68
2021/12/29 03:28:05;;;;;;;3.92;1.20;;;7.30;99.90;;;;;;4972696;28;20045;-68
2021/12/29 03:30:35;;;;;;;4.35;1.45;;;7.30;99.90;;;;;;4972238;28;20080;-68
2021/12/29 03:33:05;;;;;;;3.25;1.40;;;7.30;99.90;;;;;;4977082;28;20026;-68
2021/12/29 03:35:43;;;;;;;5.15;1.10;;;7.30;99.90;;;;;;4972270;28;20034;-68
2021/12/29 03:38:11;;;;;;;3.22;1.38;;;7.30;99.90;;;;;;4972430;28;20034;-68
2021/12/29 03:40:38;;;;;;;2.97;1.58;;;7.30;99.90;;;;;;4970709;28;20039;-68
2021/12/29 03:43:06;;;;;;;10.65;1.45;;;7.30;99.90;;;;;;4969354;28;20282;-68
2021/12/29 03:45:33;;;;;;;4.95;1.23;;;7.30;99.90;;;;;;4972446;28;20022;-68
2021/12/29 03:47:59;;;;;;;3.00;1.30;;;7.30;99.90;;;;;;4971178;28;20538;-68
2021/12/29 03:50:24;;;;;;;2.28;0.82;;;7.30;99.90;;;;;;4973009;28;20032;-68
2021/12/29 03:52:53;;;;;;;4.60;1.17;;;7.30;99.90;;;;;;4970318;28;21007;-68
2021/12/29 03:55:19;;;;;;;;;;;7.20;99.90;;;;;;4971849;28;20046;-68
2021/12/29 03:57:44;;;;;;;4.47;1.20;;;7.20;99.90;;;;;;4970526;28;19921;-68
2021/12/29 04:00:14;;;;;;;3.90;1.52;;;7.20;99.90;;;;;;4972802;28;20042;-68
2021/12/29 04:02:40;;;;;;;1.92;1.23;;;7.20;99.90;;;;;;4973409;28;20054;-68
2021/12/29 04:05:09;;;;;;;3.72;1.92;;;7.20;99.90;;;;;;4974085;28;20053;-68
2021/12/29 04:07:35;;;;;;;5.50;1.48;;;7.20;99.90;;;;;;4970776;28;20038;-68
2021/12/29 04:10:01;;;;;;;3.85;1.45;;;7.20;99.90;;;;;;4972748;28;20056;-68
2021/12/29 04:12:26;;;;;;;0.98;0.70;;;7.20;99.90;;;;;;4972184;28;20504;-68
2021/12/29 04:14:52;;;;;;;3.03;1.15;;;7.30;99.90;;;;;;4973991;28;20441;-68
2021/12/29 04:17:24;;;;;;;4.20;0.80;;;7.20;99.90;;;;;;4969827;28;20038;-67
2021/12/29 04:22:48;;;;;;;;;;;7.20;99.90;;;;;;4965225;28;20493;-67
2021/12/29 04:25:13;;;;;;;1.35;0.68;;;7.20;99.90;;;;;;4970763;28;19960;-67
2021/12/29 04:27:39;;;;;;;5.18;0.95;;;7.20;99.90;;;;;;4970212;28;20049;-67
2021/12/29 04:30:05;;;;;;;2.60;0.82;;;7.20;99.90;;;;;;4972863;28;20066;-67
2021/12/29 04:32:31;;;;;;;3.53;0.98;;;7.20;99.90;;;;;;4969596;28;20835;-68
2021/12/29 04:34:56;;;;;;;13.68;1.25;;;7.20;99.90;;;;;;4970084;28;20045;-68
2021/12/29 04:37:22;;;;;;;4.15;0.90;;;7.20;99.90;;;;;;4983653;28;20059;-67
2021/12/29 04:39:48;;;;;;;3.58;0.82;;;7.20;99.90;;;;;;4972097;28;20054;-67
2021/12/29 04:42:13;;;;;;;0.95;0.60;;;7.20;99.90;;;;;;4972050;28;20048;-68
2021/12/29 04:44:39;;;;;;;3.10;0.73;;;7.20;99.90;;;;;;4970371;28;20457;-67
2021/12/29 04:47:07;;;;;;;3.13;0.68;;;7.20;99.90;;;;;;4969475;28;20030;-67
2021/12/29 04:49:40;;;;;;;0.80;0.80;;;7.20;99.90;;;;;;4972904;28;20465;-68
2021/12/29 04:52:07;;;;;;;1.63;0.57;;;7.20;99.90;;;;;;4972120;28;20034;-68
2021/12/29 04:54:34;;;;;;;2.78;1.17;;;7.10;99.90;;;;;;4972104;28;20037;-68
2021/12/29 04:56:59;;;;;;;3.20;0.60;;;7.10;99.90;;;;;;4973932;28;20070;-68
2021/12/29 04:59:27;;;;;;;5.65;1.30;;;7.10;99.90;;;;;;4978144;28;20129;-68
2021/12/29 05:01:53;;;;;;;2.63;0.75;;;7.10;99.90;;;;;;4975688;28;20050;-67
2021/12/29 05:04:29;;;;;;;1.73;1.20;;;7.00;99.90;;;;;;4974781;28;20041;-68
2021/12/29 05:09:39;;;;;;;3.33;1.33;;;7.00;99.90;;;;;;4973743;28;21394;-67
2021/12/29 05:12:05;;;;;;;1.83;0.60;;;7.00;99.90;;;;;;4972697;28;20030;-67
2021/12/29 05:14:31;;;;;;;2.38;0.90;;;7.00;99.90;;;;;;4974325;28;20038;-67
2021/12/29 05:16:57;;;;;;;1.65;0.82;;;7.00;99.90;;;;;;4975897;28;20030;-68
2021/12/29 05:19:23;;;;;;;3.03;0.85;;;7.00;99.90;;;;;;5002878;28;20044;-67
2021/12/29 05:21:48;;;;;;;3.40;1.20;;;7.00;99.90;;;;;;4973157;28;20030;-67
2021/12/29 05:24:14;;;;;;;3.40;1.02;;;7.00;99.90;;;;;;4974485;28;20042;-67
2021/12/29 05:26:40;;;;;;;4.53;1.00;;;7.00;99.90;;;;;;4973075;28;20034;-67
2021/12/29 05:29:05;;;;;;;4.40;0.77;;;7.00;99.90;;;;;;4971767;28;20038;-67
2021/12/29 05:31:31;;;;;;;1.02;0.85;;;7.00;99.90;;;;;;4970475;28;20038;-67
2021/12/29 05:33:58;;;;;;;2.35;0.95;;;7.00;99.90;;;;;;4976830;28;20038;-67
2021/12/29 05:36:24;;;;;;;2.78;0.80;;;7.00;99.90;;;;;;4972717;28;20069;-67
2021/12/29 05:38:52;;;;;;;1.20;0.90;;;7.00;99.90;;;;;;4972233;28;20084;-67
2021/12/29 05:41:19;;;;;;;2.60;0.90;;;7.00;99.90;;;;;;4971693;28;20033;-68
2021/12/29 05:43:45;;;;;;;0.73;0.73;;;7.00;99.90;;;;;;4972828;28;20498;-68
2021/12/29 05:46:11;;;;;;;1.98;0.82;;;7.00;99.90;;;;;;4971833;28;20038;-68
2021/12/29 05:48:37;;;;;;;2.42;0.70;;;7.00;99.90;;;;;;4982738;28;20034;-68
2021/12/29 05:51:03;;;;;;;2.80;1.05;;;7.00;99.90;;;;;;4972373;28;20119;-68
2021/12/29 05:53:29;;;;;;;3.28;1.00;;;7.00;99.90;;;;;;4972233;28;20034;-68
2021/12/29 05:55:55;;;;;;;4.00;1.15;;;7.00;99.90;;;;;;4972310;28;20030;-68
2021/12/29 05:58:20;;;;;;;4.45;0.90;;;7.00;99.90;;;;;;4971434;28;20093;-68
2021/12/29 06:00:47;;;;;;;2.28;0.90;;;7.00;99.90;;;;;;4972927;28;20088;-68
2021/12/29 06:03:12;;;;;;;0.98;0.68;;;7.00;99.90;;;;;;4985187;28;20117;-68
2021/12/29 06:05:38;;;;;;;1.52;0.82;;;7.00;99.90;;;;;;4972186;28;20395;-67
2021/12/29 06:08:06;;;;;;;1.52;1.33;;;7.00;99.90;;;;;;4974023;28;20055;-68
2021/12/29 06:10:32;;;;;;;2.20;0.93;;;7.00;99.90;;;;;;4971150;28;20026;-67
2021/12/29 06:12:57;;;;;;;2.60;1.05;;;7.10;99.90;;;;;;4974531;28;20034;-67
2021/12/29 06:15:23;;;;;;;5.40;1.10;;;7.10;99.90;;;;;;4973468;28;20030;-67
2021/12/29 06:17:49;;;;;;;5.90;1.08;;;7.10;99.90;;;;;;4971600;28;20040;-67
2021/12/29 06:20:15;;;;;;;1.95;1.05;;;7.10;99.90;;;;;;4972164;28;20041;-68
2021/12/29 06:22:42;;;;;;;3.30;0.90;;;7.00;99.90;;;;;;4970334;28;20058;-67
2021/12/29 06:25:10;;;;;;;2.67;0.90;;;7.00;99.90;;;;;;4969156;28;20034;-68
2021/12/29 06:27:36;;;;;;;;;;;7.00;99.90;;;;;;4971250;28;20151;-67
2021/12/29 06:30:05;;;;;;;1.15;0.82;;;7.00;99.90;;;;;;4968861;28;19921;-67
2021/12/29 06:32:30;;;;;;;2.08;0.90;;;7.00;99.90;;;;;;4971692;28;20052;-68
2021/12/29 06:34:56;;;;;;;2.45;0.93;;;7.00;99.90;;;;;;4973716;28;20031;-67
2021/12/29 06:37:23;;;;;;;4.80;0.90;;;7.00;99.90;;;;;;4970794;28;20093;-68
2021/12/29 06:39:48;;;;;;;2.35;1.13;;;7.00;99.90;;;;;;4973054;28;20649;-68
2021/12/29 06:42:15;;;;;;;2.55;1.48;;;7.00;99.90;;;;;;4974574;28;20049;-67
2021/12/29 06:44:41;;;;;;;2.90;0.93;;;7.00;99.90;;;;;;4972172;28;20702;-67
2021/12/29 06:47:08;;;;;;;3.08;0.93;;;7.10;99.90;;;;;;4973023;28;20027;-67
2021/12/29 06:49:34;;;;;;;7.22;2.08;;;7.00;99.90;;;;;;4968986;28;20074;-67
2021/12/29 06:52:01;;;;;;;3.40;1.00;;;7.00;99.90;;;;;;4975195;28;20042;-68
2021/12/29 06:54:27;;;;;;;0.73;0.70;;;7.00;99.90;;;;;;4969835;28;20073;-68
2021/12/29 06:56:53;;;;;;;3.65;1.15;;;7.10;99.90;;;;;;4975278;28;20104;-67
2021/12/29 06:59:19;;;;;;;4.45;1.10;;;7.10;99.90;;;;;;4969843;28;20030;-68
2021/12/29 07:01:45;;;;;;;8.25;1.35;;;7.10;99.90;;;;;;4974574;28;20132;-68
2021/12/29 07:04:11;;;;;;;3.78;1.15;;;7.10;99.90;;;;;;4973345;28;20373;-68
2021/12/29 07:06:36;;;;;;;2.50;0.80;;;7.10;99.90;;;;;;4971367;28;20039;-68
2021/12/29 07:09:03;;;;;;;1.00;1.00;;;7.00;99.90;;;;;;4970796;28;20603;-68
2021/12/29 07:11:28;;;;;;;2.38;1.13;;;7.10;99.90;;;;;;4972087;28;20034;-69
2021/12/29 07:13:56;;;;;;;3.35;1.52;;;7.10;99.90;;;;;;4968731;28;20034;-68
2021/12/29 07:16:22;;;;;;;2.53;1.00;;;7.10;99.90;;;;;;4971474;28;20045;-67
2021/12/29 07:18:48;;;;;;;2.10;0.80;;;7.10;99.90;;;;;;4971800;28;20910;-67
2021/12/29 07:21:15;;;;;;;2.55;1.10;;;7.00;99.90;;;;;;4972997;28;20112;-68
2021/12/29 07:23:41;;;;;;;2.42;1.20;;;7.00;99.90;;;;;;4972475;28;20094;-67
2021/12/29 07:26:06;;;;;;;2.67;1.10;;;7.00;99.90;;;;;;4971860;28;20117;-67
2021/12/29 07:28:32;;;;;;;2.22;1.00;;;7.00;99.90;;;;;;4972022;28;20042;-68
2021/12/29 07:30:58;;;;;;;1.20;1.00;;;7.00;99.90;;;;;;4966642;28;20050;-68
2021/12/29 07:33:24;;;;;;;2.08;0.95;;;7.00;99.90;;;;;;4975142;28;20045;-68
2021/12/29 07:35:50;;;;;;;1.92;0.73;;;7.10;99.90;;;;;;4970488;28;20651;-68
2021/12/29 07:38:15;;;;;;;1.10;0.73;;;7.10;99.90;;;;;;4971121;28;20081;-68
2021/12/29 07:40:42;;;;;;;3.47;1.05;;;7.10;99.90;;;;;;4972679;28;20038;-68
2021/12/29 07:43:08;;;;;;;1.27;0.75;;;7.10;99.90;;;;;;4970475;28;20038;-67
2021/12/29 07:45:33;;;;;;;2.97;0.80;;;7.10;99.90;;;;;;4967182;28;20026;-67
2021/12/29 07:48:00;;;;;;;2.38;1.10;;;7.10;99.90;;;;;;4967444;28;20441;-68
2021/12/29 07:50:26;;;;;;;2.20;1.10;;;7.10;99.90;;;;;;4972385;28;20079;-68
2021/12/29 07:52:51;;;;;;;7.07;1.00;;;7.10;99.90;;;;;;4971460;28;20145;-68
2021/12/29 07:55:18;;;;;;;2.80;1.00;;;7.10;99.90;;;;;;4972278;28;20038;-67
2021/12/29 07:57:46;;;;;;;2.95;1.10;;;7.10;99.90;;;;;;4974543;28;20573;-67
2021/12/29 08:00:12;;;;;;;2.13;1.42;;;7.10;99.90;;;;;;4971273;28;20046;-67
2021/12/29 08:02:39;;;;;;;1.75;1.52;;;7.10;99.90;;;;;;4977085;28;20058;-68
2021/12/29 08:05:08;;;;;;;1.73;1.13;;;7.10;99.90;;;;;;4969623;28;20034;-68
2021/12/29 08:07:34;;;;;;;1.98;0.90;;;7.20;99.90;;;;;;4970433;28;20038;-68
2021/12/29 08:10:01;;;;;;;3.22;1.15;;;7.20;99.90;;;;;;4968852;28;20037;-68
2021/12/29 08:12:27;;;;;;;4.20;1.10;;;7.20;99.90;;;;;;4967122;28;20037;-67
2021/12/29 08:14:52;;;;;;;1.70;0.90;;;7.20;99.90;;;;;;4972637;28;20026;-68
2021/12/29 08:17:18;;;;;;;2.33;1.50;;;7.20;99.90;;;;;;4969551;28;20093;-68
2021/12/29 08:19:45;;;;;;;1.90;0.98;;;7.20;99.90;;;;;;4969488;28;20039;-67
2021/12/29 08:22:11;;;;;;;4.03;1.15;;;7.20;99.90;;;;;;4969173;28;20067;-68
2021/12/29 08:24:37;;;;;;;1.95;1.10;;;7.20;99.90;;;;;;4971717;28;20030;-67
2021/12/29 08:27:04;;;;;;;5.18;1.83;;;7.20;99.90;;;;;;4972740;28;20041;-67
2021/12/29 08:29:32;;;;;;;3.65;1.45;;;7.30;99.90;;;;;;4975391;28;20038;-67
2021/12/29 08:31:58;;;;;;;1.55;1.13;;;7.30;99.90;;;;;;4976117;28;21137;-67
2021/12/29 08:34:24;;;;;;;3.55;1.08;;;7.30;99.90;;;;;;4977005;28;20034;-68
2021/12/29 08:36:50;;;;;;;3.03;0.82;;;7.30;99.90;;;;;;4973603;28;20053;-67
2021/12/29 08:39:18;;;;;;;2.67;0.93;;;7.30;99.90;;;;;;4978971;28;20057;-68
2021/12/29 08:41:44;;;;;;;;;;;7.30;99.90;;;;;;4975211;28;20109;-67
2021/12/29 08:44:10;;;;;;;1.35;1.25;;;7.40;99.90;;;;;;4974563;28;19928;-68
2021/12/29 08:46:36;;;;;;;2.40;2.20;;;7.30;99.90;;;;;;4973503;28;20042;-68
2021/12/29 08:49:02;;;;;;;3.53;1.00;;;7.30;99.90;;;;;;4977034;28;20082;-67
2021/12/29 08:51:27;;;;;;;3.83;0.95;;;7.40;99.90;;;;;;4975481;28;20768;-68
2021/12/29 08:53:53;;;;;;;4.45;1.00;;;7.30;99.90;;;;;;4976485;28;20121;-68
2021/12/29 08:56:19;;;;;;;4.72;1.33;;;7.30;99.90;;;;;;5006805;28;20035;-67
2021/12/29 08:58:44;;;;;;;2.28;1.30;;;7.30;99.90;;;;;;4976417;28;20038;-68
2021/12/29 09:01:11;;;;;;;3.83;1.33;;;7.30;99.90;;;;;;4977929;28;20055;-67
2021/12/29 09:03:36;;;;;;;2.72;1.63;;;7.30;99.90;;;;;;4978609;28;20049;-67
2021/12/29 09:06:03;;;;;;;2.85;1.00;;;7.40;99.90;;;;;;4975549;28;20038;-67
2021/12/29 09:08:29;;;;;;;3.30;0.80;;;7.30;99.90;;;;;;4973215;28;20038;-67
2021/12/29 09:10:54;;;;;;;3.03;1.13;;;7.40;99.90;;;;;;4975983;28;20400;-67
2021/12/29 09:13:21;;;;;;;0.90;0.73;;;7.40;99.90;;;;;;4975505;28;20077;-67
2021/12/29 09:15:47;;;;;;;1.35;1.13;;;7.40;99.90;;;;;;4975205;28;20069;-67
2021/12/29 09:18:13;;;;;;;4.05;1.05;;;7.40;99.90;;;;;;4975634;28;20029;-67
2021/12/29 09:20:45;;;;;;;3.47;1.23;;;7.40;99.90;;;;;;4976469;28;20042;-67
2021/12/29 09:23:13;;;;;;;2.42;0.90;;;7.50;99.90;;;;;;4975154;28;20038;-67
2021/12/29 09:25:40;;;;;;;3.05;1.60;;;7.60;99.90;;;;;;4976249;28;20034;-68
2021/12/29 09:28:08;;;;;;;1.60;1.10;;;7.60;99.90;;;;;;4976994;28;20042;-67
2021/12/29 09:30:35;;;;;;;1.45;0.93;;;7.70;99.90;;;;;;4981268;28;20038;-67
2021/12/29 09:33:02;;;;;;;2.37;1.20;;;7.80;99.90;;;;;;4975258;28;20462;-68
2021/12/29 09:35:28;;;;;;;1.88;1.02;;;7.90;99.90;;;;;;4973035;28;20958;-68
2021/12/29 09:37:55;;;;;;;2.85;1.08;;;8.00;99.90;;;;;;4974337;28;20550;-68
2021/12/29 09:40:22;;;;;;;1.75;0.90;;;8.00;99.90;;;;;;4977168;28;20038;-68
2021/12/29 09:42:49;;;;;;;1.43;0.60;;;8.00;99.90;;;;;;4978001;28;20038;-68
2021/12/29 09:45:15;;;;;;;1.55;0.80;;;8.00;99.90;;;;;;4976012;28;20037;-68
2021/12/29 09:47:41;;;;;;;1.77;0.80;;;8.10;99.90;;;;;;4974217;28;20043;-68
2021/12/29 09:50:14;;;;;;;3.08;0.80;;;8.10;99.90;;;;;;4974116;28;20065;-66
2021/12/29 09:52:41;;;;;;;2.28;0.95;;;8.10;99.90;;;;;;4974383;28;20042;-67
2021/12/29 09:55:10;;;;;;;2.55;1.00;;;8.20;99.90;;;;;;4975247;28;20041;-67
2021/12/29 09:57:44;;;;;;;2.58;0.80;;;8.20;99.90;;;;;;4974177;28;20070;-68
2021/12/29 10:00:19;;;;;;;0.60;0.60;;;8.20;99.90;;;;;;4973661;28;20042;-68
2021/12/29 10:02:45;;;;;;;3.03;0.90;;;8.20;99.90;;;;;;4974458;28;20085;-68
2021/12/29 10:05:11;;;;;;;2.25;0.98;;;8.20;99.90;;;;;;4975127;28;20033;-67
2021/12/29 10:07:37;;;;;;;2.15;1.08;;;8.20;99.90;;;;;;4972866;28;20125;-67
2021/12/29 10:10:17;;;;;;;2.70;1.00;;;8.20;99.90;;;;;;4976156;28;20038;-67
2021/12/29 10:12:44;;;;;;;1.55;0.88;;;8.20;99.90;;;;;;4977990;28;20158;-67
2021/12/29 10:15:09;;;;;;;4.30;1.15;;;8.30;99.90;;;;;;4973839;28;20069;-67
2021/12/29 10:17:35;;;;;;;0.70;0.70;;;8.30;99.90;;;;;;4975106;28;20169;-67
2021/12/29 10:20:10;;;;;;;3.85;1.10;;;8.30;99.90;;;;;;4974221;28;20038;-68
2021/12/29 10:22:37;;;;;;;4.65;1.25;;;8.30;99.90;;;;;;4974242;28;20046;-67
2021/12/29 10:25:13;;;;;;;7.55;1.55;;;8.30;99.90;;;;;;4973758;28;20038;-67
2021/12/29 10:27:39;;;;;;;4.22;1.10;;;8.40;99.90;;;;;;4976876;28;20027;-68
2021/12/29 10:30:20;;;;;;;6.40;1.50;;;8.40;99.90;;;;;;4974248;28;20101;-67
2021/12/29 10:32:46;;;;;;;3.58;0.90;;;8.40;99.90;;;;;;4971996;28;20050;-68
2021/12/29 10:35:23;;;;;;;4.40;1.10;;;8.40;99.90;;;;;;4972806;28;20125;-68
2021/12/29 10:37:50;;;;;;;2.78;1.10;;;8.40;99.90;;;;;;4972235;28;20433;-66
2021/12/29 10:40:30;;;;;;;4.47;1.20;;;8.40;99.90;;;;;;4973838;28;20034;-67
2021/12/29 10:42:59;;;;;;;1.77;1.13;;;8.40;99.90;;;;;;4975533;28;20042;-67
2021/12/29 10:45:39;;;;;;;4.55;0.95;;;8.30;99.90;;;;;;4972690;28;20671;-68
2021/12/29 10:48:18;;;;;;;1.60;1.23;;;8.40;99.90;;;;;;4974174;28;20038;-67
2021/12/29 10:51:07;;;;;;;3.00;1.08;;;8.40;99.90;;;;;;4973673;28;20057;-67
2021/12/29 10:53:34;;;;;;;;;;;8.40;99.90;;;;;;4973236;28;20062;-68
2021/12/29 10:56:02;;;;;;;2.08;0.82;;;8.40;99.90;;;;;;4970658;28;20380;-67
2021/12/29 10:58:33;;;;;;;2.85;0.90;;;8.40;99.90;;;;;;4972638;28;20046;-67
2021/12/29 11:01:05;;;;;;;2.75;0.90;;;8.40;99.90;;;;;;4972890;28;20049;-68
2021/12/29 11:03:33;;;;;;;3.10;1.05;;;8.40;99.90;;;;;;4979757;28;20046;-68
2021/12/29 11:06:01;;;;;;;5.82;1.20;;;8.40;99.90;;;;;;4975373;28;20041;-68
2021/12/29 11:08:32;;;;;;;3.78;0.95;;;8.40;99.90;;;;;;4976017;28;20084;-67
2021/12/29 11:11:07;;;;;;;4.15;0.90;;;8.40;99.90;;;;;;4975298;28;20480;-67
2021/12/29 11:13:34;;;;;;;1.33;0.82;;;8.50;99.90;;;;;;4978029;28;20157;-68
2021/12/29 11:16:03;;;;;;;8.05;1.23;;;8.50;99.90;;;;;;4972011;28;20064;-68
2021/12/29 11:18:50;;;;;;;2.80;0.80;;;8.50;99.90;;;;;;4971840;28;20035;-68
2021/12/29 11:21:28;;;;;;;5.88;1.05;;;8.60;99.90;;;;;;4970520;28;20042;-68
2021/12/29 11:23:54;;;;;;;3.75;0.90;;;8.50;99.90;;;;;;4973736;28;20029;-67
2021/12/29 11:26:28;;;;;;;3.75;1.35;;;8.60;99.90;;;;;;4973996;28;20069;-67
2021/12/29 11:29:15;;;;;;;3.85;1.17;;;8.60;99.90;;;;;;4972309;28;20481;-68
2021/12/29 11:32:00;;;;;;;3.20;1.02;;;8.60;99.90;;;;;;4972690;28;20038;-67
2021/12/29 11:34:27;;;;;;;1.15;0.70;;;8.70;99.90;;;;;;4972997;28;20117;-67
2021/12/29 11:37:07;;;;;;;4.70;0.80;;;8.70;99.90;;;;;;4972177;28;20054;-67
2021/12/29 11:39:35;;;;;;;1.92;0.75;;;8.70;99.90;;;;;;4973098;28;20035;-67
2021/12/29 11:42:02;;;;;;;4.07;0.90;;;8.70;99.90;;;;;;4976464;28;20040;-67
2021/12/29 11:44:28;;;;;;;4.25;1.17;;;8.70;99.90;;;;;;4973744;28;20025;-68
2021/12/29 11:46:54;;;;;;;2.22;1.15;;;8.70;99.90;;;;;;4972723;28;20508;-67
2021/12/29 11:49:20;;;;;;;2.60;0.90;;;8.80;99.90;;;;;;4971572;28;20035;-68
2021/12/29 11:52:12;;;;;;;2.22;0.88;;;8.80;99.90;;;;;;4973784;28;20552;-68
2021/12/29 11:54:46;;;;;;;4.75;1.08;;;8.80;99.90;;;;;;5003712;28;20068;-68
2021/12/29 11:57:14;;;;;;;5.25;1.50;;;8.80;99.90;;;;;;4972292;28;20029;-68
2021/12/29 11:59:40;;;;;;;5.20;1.77;;;8.80;99.90;;;;;;4972335;28;20038;-68
2021/12/29 12:02:06;;;;;;;5.15;1.52;;;8.80;99.90;;;;;;4971043;28;20153;-68
2021/12/29 12:04:33;;;;;;;3.83;1.25;;;8.80;99.90;;;;;;4971574;28;20088;-69
2021/12/29 12:07:14;;;;;;;4.80;1.65;;;8.80;99.90;;;;;;4971948;28;20035;-68
2021/12/29 12:09:48;;;;;;;5.55;1.00;;;8.80;99.90;;;;;;4972281;28;20045;-68
2021/12/29 12:12:15;;;;;;;5.95;2.00;;;8.80;99.90;;;;;;5004377;28;20041;-68
2021/12/29 12:14:46;;;;;;;1.20;0.88;;;8.70;99.90;;;;;;4973112;28;20041;-68
2021/12/29 12:17:21;;;;;;;5.53;1.23;;;8.70;99.90;;;;;;4974102;28;20033;-68
2021/12/29 12:20:03;;;;;;;4.50;1.00;;;8.70;99.90;;;;;;4970144;28;21018;-68
2021/12/29 12:22:29;;;;;;;5.50;1.02;;;8.80;99.90;;;;;;4972958;28;20034;-68
2021/12/29 12:24:54;;;;;;;3.35;1.00;;;8.70;99.90;;;;;;4971918;28;20485;-68
2021/12/29 12:27:38;;;;;;;4.22;1.17;;;8.80;99.90;;;;;;4970395;28;20039;-68
2021/12/29 12:30:23;;;;;;;0.95;0.88;;;8.70;99.90;;;;;;4976973;28;20041;-68
2021/12/29 12:33:07;;;;;;;6.50;1.60;;;8.70;99.90;;;;;;4973826;28;20058;-67
2021/12/29 12:35:34;;;;;;;6.88;1.35;;;8.80;99.90;;;;;;4973411;28;20393;-68
2021/12/29 12:38:27;;;;;;;2.67;1.08;;;8.80;99.90;;;;;;4972680;28;20396;-68
2021/12/29 12:41:01;;;;;;;6.80;1.48;;;8.80;99.90;;;;;;4973068;28;20042;-67
2021/12/29 12:43:27;;;;;;;7.13;1.52;;;8.80;99.90;;;;;;4975185;28;20025;-67
2021/12/29 12:45:53;;;;;;;5.20;1.45;;;8.80;99.90;;;;;;4969239;28;20113;-68
2021/12/29 12:48:31;;;;;;;5.85;1.42;;;8.80;99.90;;;;;;4971824;28;20039;-67
2021/12/29 12:51:00;;;;;;;6.32;1.48;;;8.80;99.90;;;;;;4972952;28;20060;-68
2021/12/29 12:53:36;;;;;;;4.72;1.63;;;8.80;99.90;;;;;;4973422;28;21464;-68
2021/12/29 12:56:05;;;;;;;6.63;1.10;;;8.80;99.90;;;;;;4972412;28;20089;-69
2021/12/29 12:58:38;;;;;;;4.35;1.00;;;8.80;99.90;;;;;;4971074;28;20034;-68
2021/12/29 13:01:12;;;;;;;6.05;1.42;;;8.80;99.90;;;;;;4973921;28;20050;-68
2021/12/29 13:03:38;;;;;;;5.90;1.10;;;8.80;99.90;;;;;;4970706;28;20038;-68
2021/12/29 13:06:09;;;;;;;3.70;1.20;;;8.70;99.90;;;;;;4974000;28;20037;-68
2021/12/29 13:08:41;;;;;;;4.10;1.40;;;8.70;99.90;;;;;;4971102;28;20034;-67
2021/12/29 13:11:13;;;;;;;3.45;1.20;;;8.70;99.90;;;;;;4972107;28;20462;-67